createdAt,value
2022-11-08T00:00:45.243Z,100116.63
2022-11-08T00:03:12.904Z,100118.94
2022-11-08T00:05:58.937Z,100110.84
2022-11-08T00:08:44.767Z,100120.72
2022-11-08T00:11:30.637Z,100115.38
2022-11-08T00:13:59.400Z,100119.56
2022-11-08T00:16:28.566Z,100122.34
2022-11-08T00:18:56.113Z,100116.91
2022-11-08T00:21:24.131Z,100113.63
2022-11-08T00:23:51.677Z,100109.16
2022-11-08T00:26:19.169Z,100118.34
2022-11-08T00:28:46.659Z,100117.41
2022-11-08T00:31:14.203Z,100108.44
2022-11-08T00:33:41.713Z,100109.56
2022-11-08T00:36:09.643Z,100109.09
2022-11-08T00:38:37.214Z,100105.59
2022-11-08T00:41:04.713Z,100111.38
2022-11-08T00:43:32.434Z,100111.53
2022-11-08T00:45:59.871Z,100110.16
2022-11-08T00:48:27.398Z,100105.06
2022-11-08T00:50:54.862Z,100098.94
2022-11-08T00:53:22.308Z,100096.66
2022-11-08T00:55:49.800Z,100093.50
2022-11-08T00:58:17.421Z,100092.72
2022-11-08T01:00:45.200Z,100092.41
2022-11-08T01:03:21.738Z,100087.75
2022-11-08T01:05:50.463Z,100093.13
2022-11-08T01:08:20.250Z,100087.94
2022-11-08T01:10:53.055Z,100077.44
2022-11-08T01:13:21.147Z,100081.25
2022-11-08T01:15:49.604Z,100079.31
2022-11-08T01:18:18.003Z,100074.44
2022-11-08T01:20:47.950Z,100080.75
2022-11-08T01:23:17.113Z,100084.00
2022-11-08T01:25:47.395Z,100081.59
2022-11-08T01:28:15.888Z,100078.91
2022-11-08T01:30:45.256Z,100086.31
2022-11-08T01:33:13.682Z,100072.63
2022-11-08T01:35:45.211Z,100074.19
2022-11-08T01:38:13.303Z,100068.41
2022-11-08T01:40:48.517Z,100065.97
2022-11-08T01:43:40.275Z,100067.16
2022-11-08T01:46:12.968Z,100059.38
2022-11-08T01:49:25.151Z,100059.28
2022-11-08T01:52:08.399Z,100056.69
2022-11-08T01:54:44.955Z,100061.38
2022-11-08T01:57:19.617Z,100063.00
2022-11-08T01:59:50.279Z,100061.16
2022-11-08T02:02:18.717Z,100064.06
2022-11-08T02:04:46.260Z,100056.72
2022-11-08T02:07:14.729Z,100054.38
2022-11-08T02:09:46.551Z,100058.50
2022-11-08T02:12:15.991Z,100050.97
2022-11-08T02:14:43.961Z,100058.72
2022-11-08T02:17:11.990Z,100055.75
2022-11-08T02:19:51.785Z,100057.09
2022-11-08T02:22:29.594Z,100068.66
2022-11-08T02:24:58.616Z,100059.91
2022-11-08T02:27:26.770Z,100061.06
2022-11-08T02:29:56.011Z,100061.25
2022-11-08T02:32:26.381Z,100065.41
2022-11-08T02:34:58.590Z,100066.78
2022-11-08T02:37:27.172Z,100068.41
2022-11-08T02:39:54.731Z,100069.97
2022-11-08T02:42:22.300Z,100068.25
2022-11-08T02:44:50.034Z,100065.63
2022-11-08T02:47:17.788Z,100064.06
2022-11-08T02:49:45.350Z,100064.94
2022-11-08T02:52:12.894Z,100061.63
2022-11-08T02:54:40.407Z,100065.84
2022-11-08T02:57:07.971Z,100069.34
2022-11-08T02:59:35.429Z,100065.84
2022-11-08T03:02:02.976Z,100061.53
2022-11-08T03:04:30.533Z,100061.94
2022-11-08T03:06:58.045Z,100069.25
2022-11-08T03:09:27.202Z,100067.19
2022-11-08T03:11:54.709Z,100069.44
2022-11-08T03:14:22.484Z,100057.38
2022-11-08T03:16:49.905Z,100062.16
2022-11-08T03:19:17.385Z,100067.25
2022-11-08T03:21:44.960Z,100068.38
2022-11-08T03:24:12.761Z,100069.63
2022-11-08T03:26:40.258Z,100072.66
2022-11-08T03:29:07.857Z,100066.44
2022-11-08T03:31:35.356Z,100078.91
2022-11-08T03:34:05.299Z,100076.44
2022-11-08T03:36:32.722Z,100075.50
2022-11-08T03:39:00.246Z,100079.66
2022-11-08T03:41:27.782Z,100076.38
2022-11-08T03:43:55.253Z,100084.25
2022-11-08T03:46:22.788Z,100076.00
2022-11-08T03:48:50.305Z,100085.03
2022-11-08T03:51:17.880Z,100076.16
2022-11-08T03:53:45.383Z,100073.66
2022-11-08T03:56:12.837Z,100061.63
2022-11-08T03:58:40.242Z,100062.97
2022-11-08T04:01:08.154Z,100059.75
2022-11-08T04:03:35.737Z,100065.19
2022-11-08T04:06:04.554Z,100066.34
2022-11-08T04:08:32.159Z,100060.63
2022-11-08T04:11:20.739Z,100065.97
2022-11-08T04:14:06.909Z,100060.63
2022-11-08T04:16:34.633Z,100059.47
2022-11-08T04:19:20.781Z,100055.00
2022-11-08T04:21:50.989Z,100045.69
2022-11-08T04:24:18.567Z,100056.50
2022-11-08T04:26:46.413Z,100049.59
2022-11-08T04:29:14.370Z,100050.13
2022-11-08T04:31:42.144Z,100050.91
2022-11-08T04:34:09.653Z,100050.34
2022-11-08T04:36:37.101Z,100042.19
2022-11-08T04:39:04.729Z,100039.19
2022-11-08T04:41:32.285Z,100055.63
2022-11-08T04:43:59.842Z,100056.56
2022-11-08T04:46:29.454Z,100066.66
2022-11-08T04:48:59.395Z,100069.38
2022-11-08T04:51:31.015Z,100072.31
2022-11-08T04:54:02.614Z,100077.72
2022-11-08T04:56:31.766Z,100082.13
2022-11-08T04:59:01.226Z,100087.28
2022-11-08T05:01:33.281Z,100087.00
2022-11-08T05:04:00.825Z,100094.75
2022-11-08T05:06:32.510Z,100100.31
2022-11-08T05:09:00.711Z,100104.38
2022-11-08T05:11:30.535Z,100107.56
2022-11-08T05:13:58.813Z,100112.63
2022-11-08T05:16:32.283Z,100107.78
2022-11-08T05:19:00.502Z,100111.63
2022-11-08T05:21:47.122Z,100113.00
2022-11-08T05:24:17.591Z,100115.38
2022-11-08T05:26:48.354Z,100099.00
2022-11-08T05:29:17.188Z,100098.72
2022-11-08T05:31:45.079Z,100110.00
2022-11-08T05:34:12.604Z,100104.13
2022-11-08T05:36:40.093Z,100105.19
2022-11-08T05:39:07.531Z,100112.50
2022-11-08T05:41:35.001Z,100105.75
2022-11-08T05:44:02.529Z,100107.13
2022-11-08T05:46:29.956Z,100114.50
2022-11-08T05:48:57.439Z,100118.88
2022-11-08T05:51:24.966Z,100120.09
2022-11-08T05:53:52.441Z,100129.25
2022-11-08T05:56:21.286Z,100134.19
2022-11-08T05:58:48.920Z,100141.50
2022-11-08T06:01:20.824Z,100143.78
2022-11-08T06:03:48.920Z,100143.81
2022-11-08T06:06:19.958Z,100141.66
2022-11-08T06:08:50.553Z,100148.22
2022-11-08T06:11:23.141Z,100146.38
2022-11-08T06:13:53.456Z,100142.22
2022-11-08T06:16:23.379Z,100156.88
2022-11-08T06:18:50.882Z,100148.75
2022-11-08T06:21:21.416Z,100143.09
2022-11-08T06:23:53.592Z,100151.50
2022-11-08T06:26:22.949Z,100153.25
2022-11-08T06:28:50.646Z,100149.19
2022-11-08T06:31:18.073Z,100156.28
2022-11-08T06:33:46.418Z,100149.25
2022-11-08T06:36:13.855Z,100151.47
2022-11-08T06:38:41.353Z,100154.25
2022-11-08T06:41:17.228Z,100164.34
2022-11-08T06:43:44.688Z,100158.06
2022-11-08T06:46:12.194Z,100161.88
2022-11-08T06:48:39.710Z,100160.34
2022-11-08T06:51:07.440Z,100162.41
2022-11-08T06:53:36.514Z,100170.09
2022-11-08T06:56:04.437Z,100170.09
2022-11-08T06:58:32.054Z,100167.03
2022-11-08T07:01:02.339Z,100173.44
2022-11-08T07:03:30.508Z,100183.06
2022-11-08T07:05:58.147Z,100177.81
2022-11-08T07:08:25.632Z,100170.94
2022-11-08T07:10:53.775Z,100168.81
2022-11-08T07:13:21.778Z,100177.81
2022-11-08T07:15:49.518Z,100177.13
2022-11-08T07:18:19.359Z,100167.91
2022-11-08T07:20:47.153Z,100171.28
2022-11-08T07:23:15.124Z,100173.50
2022-11-08T07:25:42.687Z,100167.97
2022-11-08T07:28:18.552Z,100163.16
2022-11-08T07:30:48.020Z,100170.06
2022-11-08T07:33:16.885Z,100168.22
2022-11-08T07:35:47.617Z,100171.16
2022-11-08T07:38:15.123Z,100172.56
2022-11-08T07:40:43.161Z,100169.81
2022-11-08T07:43:23.366Z,100167.50
2022-11-08T07:46:02.457Z,100170.31
2022-11-08T07:48:31.711Z,100169.41
2022-11-08T07:50:59.161Z,100164.44
2022-11-08T07:53:26.640Z,100175.78
2022-11-08T07:55:55.198Z,100166.31
2022-11-08T07:58:22.746Z,100172.50
2022-11-08T08:00:52.794Z,100165.25
2022-11-08T08:03:20.861Z,100160.91
2022-11-08T08:06:00.740Z,100163.50
2022-11-08T08:08:29.875Z,100164.56
2022-11-08T08:11:19.577Z,100168.81
2022-11-08T08:13:47.430Z,100173.34
2022-11-08T08:16:14.830Z,100175.41
2022-11-08T08:18:42.317Z,100168.63
2022-11-08T08:21:12.549Z,100173.53
2022-11-08T08:23:40.051Z,100165.28
2022-11-08T08:26:07.593Z,100168.88
2022-11-08T08:28:35.054Z,100168.59
2022-11-08T08:31:02.541Z,100168.88
2022-11-08T08:33:30.179Z,100166.78
2022-11-08T08:36:01.316Z,100168.50
2022-11-08T08:38:32.835Z,100168.47
2022-11-08T08:41:02.449Z,100165.09
2022-11-08T08:43:35.158Z,100170.72
2022-11-08T08:46:07.019Z,100158.31
2022-11-08T08:48:35.911Z,100161.66
2022-11-08T08:51:03.343Z,100173.88
2022-11-08T08:53:30.805Z,100172.25
2022-11-08T08:55:58.417Z,100169.06
2022-11-08T08:58:25.946Z,100167.28
2022-11-08T09:03:40.946Z,100161.56
2022-11-08T09:06:08.414Z,100167.41
2022-11-08T09:08:36.029Z,100160.97
2022-11-08T09:11:03.676Z,100172.41
2022-11-08T09:13:32.417Z,100167.63
2022-11-08T09:16:02.911Z,100173.75
2022-11-08T09:18:31.458Z,100165.16
2022-11-08T09:20:59.317Z,100166.75
2022-11-08T09:23:27.367Z,100172.19
2022-11-08T09:26:04.271Z,100166.00
2022-11-08T09:28:34.156Z,100171.19
2022-11-08T09:31:06.625Z,100169.81
2022-11-08T09:33:34.823Z,100173.97
2022-11-08T09:36:04.335Z,100172.41
2022-11-08T09:38:32.151Z,100171.56
2022-11-08T09:41:17.559Z,100164.34
2022-11-08T09:43:47.767Z,100159.94
2022-11-08T09:47:18.785Z,100157.78
2022-11-08T09:50:20.681Z,100151.72
2022-11-08T09:53:20.237Z,100153.91
2022-11-08T09:56:01.244Z,100157.63
2022-11-08T09:58:41.137Z,100154.78
2022-11-08T10:01:12.700Z,100154.38
2022-11-08T10:03:44.961Z,100156.81
2022-11-08T10:06:39.635Z,100150.97
2022-11-08T10:09:25.248Z,100144.94
2022-11-08T10:12:27.841Z,100145.03
2022-11-08T10:15:12.509Z,100146.31
2022-11-08T10:17:50.716Z,100146.84
2022-11-08T10:20:30.144Z,100142.38
2022-11-08T10:23:08.196Z,100140.69
2022-11-08T10:25:48.226Z,100140.63
2022-11-08T10:28:22.880Z,100138.25
2022-11-08T10:30:54.354Z,100139.94
2022-11-08T10:33:49.533Z,100138.00
2022-11-08T10:36:42.466Z,100130.25
2022-11-08T10:39:25.018Z,100127.94
2022-11-08T10:42:05.949Z,100129.13
2022-11-08T10:44:35.245Z,100121.78
2022-11-08T10:47:07.120Z,100118.69
2022-11-08T10:49:44.131Z,100116.22
2022-11-08T10:52:26.233Z,100115.50
2022-11-08T10:54:56.553Z,100107.13
2022-11-08T10:57:33.333Z,100117.72
2022-11-08T11:00:21.098Z,100109.16
2022-11-08T11:02:53.938Z,100104.34
2022-11-08T11:05:29.385Z,100102.50
2022-11-08T11:08:08.618Z,100099.00
2022-11-08T11:10:41.046Z,100091.56
2022-11-08T11:13:29.168Z,100094.28
2022-11-08T11:16:00.057Z,100086.53
2022-11-08T11:18:49.094Z,100082.13
2022-11-08T11:21:23.006Z,100081.03
2022-11-08T11:23:56.443Z,100075.66
2022-11-08T11:26:34.358Z,100073.69
2022-11-08T11:29:19.746Z,100082.34
2022-11-08T11:31:50.773Z,100085.78
2022-11-08T11:34:18.177Z,100084.25
2022-11-08T11:36:51.222Z,100083.09
2022-11-08T11:39:44.330Z,100079.25
2022-11-08T11:42:47.300Z,100076.56
2022-11-08T11:45:35.253Z,100074.69
2022-11-08T11:48:15.602Z,100075.06
2022-11-08T11:50:49.906Z,100071.22
2022-11-08T11:53:23.307Z,100069.69
2022-11-08T11:56:18.133Z,100066.25
2022-11-08T11:59:41.891Z,100056.22
2022-11-08T12:02:53.455Z,100061.53
2022-11-08T12:05:59.793Z,100052.97
2022-11-08T12:08:54.482Z,100051.94
2022-11-08T12:11:47.649Z,100054.34
2022-11-08T12:14:29.780Z,100057.41
2022-11-08T12:17:37.911Z,100050.19
2022-11-08T12:20:39.402Z,100050.78
2022-11-08T12:23:18.721Z,100054.00
2022-11-08T12:26:11.302Z,100055.09
2022-11-08T12:29:00.430Z,100049.28
2022-11-08T12:31:43.075Z,100048.97
2022-11-08T12:34:43.493Z,100043.41
2022-11-08T12:37:42.751Z,100048.75
2022-11-08T12:40:45.467Z,100045.63
2022-11-08T12:43:35.910Z,100053.81
2022-11-08T12:46:19.378Z,100050.19
2022-11-08T12:49:16.074Z,100040.22
2022-11-08T12:52:27.584Z,100054.63
2022-11-08T12:55:02.708Z,100048.59
2022-11-08T12:57:31.382Z,100056.94
2022-11-08T13:00:28.321Z,100047.78
2022-11-08T13:03:30.846Z,100047.41
2022-11-08T13:06:15.165Z,100054.31
2022-11-08T13:09:22.466Z,100049.72
2022-11-08T13:12:02.617Z,100046.28
2022-11-08T13:14:31.045Z,100052.03
2022-11-08T13:32:12.198Z,100048.63
2022-11-08T13:34:56.332Z,100051.66
2022-11-08T13:38:08.409Z,100049.38
2022-11-08T13:40:46.693Z,100043.00
2022-11-08T13:43:22.568Z,100056.88
2022-11-08T13:45:50.633Z,100049.28
2022-11-08T13:48:23.738Z,100057.69
2022-11-08T13:51:15.100Z,100051.53
2022-11-08T13:53:53.097Z,100052.28
2022-11-08T13:57:00.621Z,100044.72
2022-11-08T13:59:31.071Z,100053.13
2022-11-08T14:01:58.905Z,100040.44
2022-11-08T14:04:33.630Z,100045.00
2022-11-08T14:07:25.958Z,100043.88
2022-11-08T14:10:04.482Z,100043.44
2022-11-08T14:13:27.793Z,100037.34
2022-11-08T14:16:07.800Z,100043.56
2022-11-08T14:18:39.283Z,100047.00
2022-11-08T14:21:08.231Z,100052.53
2022-11-08T14:23:40.318Z,100051.13
2022-11-08T14:26:22.268Z,100051.06
2022-11-08T14:28:52.398Z,100045.84
2022-11-08T14:31:31.885Z,100054.56
2022-11-08T14:34:01.054Z,100041.56
2022-11-08T14:36:31.062Z,100045.97
2022-11-08T14:39:16.298Z,100049.19
2022-11-08T14:41:53.213Z,100052.38
2022-11-08T14:44:25.071Z,100054.28
2022-11-08T14:46:53.934Z,100047.25
2022-11-08T14:49:35.159Z,100050.22
2022-11-08T14:52:07.711Z,100048.69
2022-11-08T14:54:42.967Z,100050.69
2022-11-08T14:57:32.675Z,100048.78
2022-11-08T15:00:13.787Z,100043.50
2022-11-08T15:02:56.689Z,100035.56
2022-11-08T15:05:39.669Z,100049.06
2022-11-08T15:08:27.592Z,100053.66
2022-11-08T15:10:59.502Z,100049.31
2022-11-08T15:13:30.626Z,100053.09
2022-11-08T15:16:04.034Z,100051.06
2022-11-08T15:18:43.604Z,100050.31
2022-11-08T15:21:22.615Z,100049.00
2022-11-08T15:24:12.091Z,100054.09
2022-11-08T15:27:01.684Z,100057.06
2022-11-08T15:29:29.169Z,100056.28
2022-11-08T15:32:01.930Z,100059.78
2022-11-08T15:34:39.096Z,100058.03
2022-11-08T15:37:36.284Z,100062.09
2022-11-08T15:40:31.883Z,100064.25
2022-11-08T15:43:01.044Z,100069.72
2022-11-08T15:45:33.074Z,100069.47
2022-11-08T15:48:09.164Z,100073.69
2022-11-08T15:50:36.887Z,100074.22
2022-11-08T15:53:05.872Z,100078.81
2022-11-08T15:55:39.639Z,100076.19
2022-11-08T15:58:18.423Z,100081.47
2022-11-08T16:00:57.791Z,100074.91
2022-11-08T16:03:25.717Z,100086.97
2022-11-08T16:05:53.326Z,100084.19
2022-11-08T16:08:21.353Z,100083.59
2022-11-08T16:11:01.246Z,100084.31
2022-11-08T16:13:36.703Z,100095.25
2022-11-08T16:16:12.087Z,100094.47
2022-11-08T16:18:41.452Z,100098.22
2022-11-08T16:21:13.447Z,100097.34
2022-11-08T16:23:42.006Z,100105.69
2022-11-08T16:26:17.216Z,100097.56
2022-11-08T16:28:45.534Z,100107.72
2022-11-08T16:31:16.432Z,100111.59
2022-11-08T16:33:46.255Z,100111.91
2022-11-08T16:36:23.488Z,100110.38
2022-11-08T16:38:54.763Z,100115.47
2022-11-08T16:41:23.860Z,100111.78
2022-11-08T16:43:51.552Z,100119.00
2022-11-08T16:46:22.088Z,100121.59
2022-11-08T16:48:58.372Z,100117.94
2022-11-08T16:51:28.200Z,100125.56
2022-11-08T16:53:55.770Z,100126.47
2022-11-08T16:56:26.390Z,100128.53
2022-11-08T16:58:54.970Z,100122.97
2022-11-08T17:01:35.631Z,100130.72
2022-11-08T17:04:05.436Z,100137.88
2022-11-08T17:06:33.804Z,100130.31
2022-11-08T17:09:05.850Z,100129.41
2022-11-08T17:11:34.477Z,100139.59
2022-11-08T17:14:07.946Z,100138.53
2022-11-08T17:16:47.300Z,100131.88
2022-11-08T17:19:14.890Z,100144.72
2022-11-08T17:21:45.562Z,100136.81
2022-11-08T17:24:21.545Z,100137.59
2022-11-08T17:26:51.377Z,100139.63
2022-11-08T17:29:19.965Z,100142.88
2022-11-08T17:31:53.798Z,100136.41
2022-11-08T17:34:21.916Z,100136.84
2022-11-08T17:36:53.119Z,100136.84
2022-11-08T17:39:21.609Z,100138.53
2022-11-08T17:41:51.569Z,100137.44
2022-11-08T17:44:20.771Z,100134.06
2022-11-08T17:46:49.294Z,100136.09
2022-11-08T17:49:19.937Z,100137.94
2022-11-08T17:51:48.879Z,100134.22
2022-11-08T17:54:17.386Z,100135.91
2022-11-08T17:56:51.821Z,100143.38
2022-11-08T17:59:22.559Z,100136.69
2022-11-08T18:01:51.484Z,100135.63
2022-11-08T18:04:20.140Z,100142.59
2022-11-08T18:06:49.066Z,100146.94
2022-11-08T18:09:19.137Z,100149.41
2022-11-08T18:11:48.506Z,100145.88
2022-11-08T18:14:28.806Z,100151.88
2022-11-08T18:17:00.245Z,100150.03
2022-11-08T18:19:30.873Z,100143.84
2022-11-08T18:22:00.385Z,100147.88
2022-11-08T18:24:35.049Z,100144.75
2022-11-08T18:27:05.483Z,100147.38
2022-11-08T18:29:36.924Z,100142.59
2022-11-08T18:32:05.173Z,100147.66
2022-11-08T18:34:32.737Z,100144.72
2022-11-08T18:37:00.457Z,100152.00
2022-11-08T18:39:28.006Z,100153.06
2022-11-08T18:41:56.479Z,100151.19
2022-11-08T18:44:24.926Z,100151.97
2022-11-08T18:46:58.363Z,100157.69
2022-11-08T18:49:29.790Z,100158.19
2022-11-08T18:51:59.965Z,100158.03
2022-11-08T18:54:31.889Z,100155.56
2022-11-08T18:57:02.307Z,100160.97
2022-11-08T18:59:35.740Z,100158.94
2022-11-08T19:02:03.496Z,100169.47
2022-11-08T19:04:31.425Z,100168.97
2022-11-08T19:07:01.033Z,100171.06
2022-11-08T19:09:29.029Z,100172.94
2022-11-08T19:12:00.482Z,100182.69
2022-11-08T19:14:30.985Z,100170.19
2022-11-08T19:17:01.575Z,100182.44
2022-11-08T19:19:29.985Z,100182.25
2022-11-08T19:22:00.631Z,100185.78
2022-11-08T19:24:31.155Z,100183.34
2022-11-08T19:26:58.689Z,100184.53
2022-11-08T19:29:28.734Z,100188.31
2022-11-08T19:32:01.325Z,100184.72
2022-11-08T19:34:34.032Z,100196.88
2022-11-08T19:37:01.920Z,100194.28
2022-11-08T19:39:33.678Z,100194.72
2022-11-08T19:42:03.239Z,100200.28
2022-11-08T19:44:32.825Z,100204.44
2022-11-08T19:47:03.148Z,100203.56
2022-11-08T19:49:35.615Z,100204.56
2022-11-08T19:52:06.620Z,100199.41
2022-11-08T19:54:36.948Z,100203.91
2022-11-08T19:57:05.809Z,100196.53
2022-11-08T19:59:38.090Z,100198.06
2022-11-08T20:02:08.931Z,100195.38
2022-11-08T20:04:36.746Z,100190.19
2022-11-08T20:07:05.803Z,100195.13
2022-11-08T20:09:39.505Z,100206.53
2022-11-08T20:12:09.755Z,100210.09
2022-11-08T20:14:38.278Z,100199.91
2022-11-08T20:17:07.626Z,100207.72
2022-11-08T20:19:35.170Z,100211.50
2022-11-08T20:22:04.671Z,100210.72
2022-11-08T20:24:32.977Z,100214.13
2022-11-08T20:27:05.247Z,100216.16
2022-11-08T20:29:34.436Z,100217.81
2022-11-08T20:32:03.759Z,100224.31
2022-11-08T20:34:33.074Z,100215.28
2022-11-08T20:37:21.611Z,100222.09
2022-11-08T20:39:49.235Z,100224.91
2022-11-08T20:42:20.772Z,100216.75
2022-11-08T20:44:56.046Z,100220.16
2022-11-08T20:47:24.670Z,100223.16
2022-11-08T20:49:54.873Z,100222.19
2022-11-08T20:52:26.710Z,100218.31
2022-11-08T20:54:56.982Z,100220.31
2022-11-08T20:57:24.560Z,100228.91
2022-11-08T20:59:53.934Z,100225.22
2022-11-08T21:02:22.157Z,100231.53
2022-11-08T21:04:49.767Z,100233.66
2022-11-08T21:10:35.905Z,100237.75
2022-11-08T21:12:53.958Z,100245.75
2022-11-08T21:15:26.794Z,100236.78
2022-11-08T21:17:54.655Z,100243.00
2022-11-08T21:20:23.437Z,100241.94
2022-11-08T21:22:50.987Z,100251.75
2022-11-08T21:25:19.739Z,100241.84
2022-11-08T21:27:48.600Z,100249.53
2022-11-08T21:30:16.926Z,100243.69
2022-11-08T21:32:44.397Z,100248.84
2022-11-08T21:35:15.999Z,100248.44
2022-11-08T21:37:44.644Z,100243.31
2022-11-08T21:40:12.456Z,100251.78
2022-11-08T21:42:42.658Z,100245.16
2022-11-08T21:45:14.736Z,100245.31
2022-11-08T21:47:43.365Z,100248.53
2022-11-08T21:50:11.078Z,100241.44
2022-11-08T21:52:41.957Z,100245.41
2022-11-08T21:55:12.537Z,100246.19
2022-11-08T21:57:42.045Z,100247.13
2022-11-08T22:00:12.116Z,100248.97
2022-11-08T22:02:41.291Z,100250.06
2022-11-08T22:05:09.936Z,100248.47
2022-11-08T22:07:38.162Z,100246.13
2022-11-08T22:10:07.033Z,100247.09
2022-11-08T22:12:35.718Z,100240.84
2022-11-08T22:15:03.167Z,100239.09
2022-11-08T22:17:30.760Z,100240.63
2022-11-08T22:19:58.188Z,100242.97
2022-11-08T22:22:25.687Z,100244.53
2022-11-08T22:24:53.451Z,100237.50
2022-11-08T22:27:20.960Z,100239.53
2022-11-08T22:29:48.424Z,100238.19
2022-11-08T22:32:15.908Z,100238.78
2022-11-08T22:34:44.153Z,100230.53
2022-11-08T22:37:11.569Z,100233.28
2022-11-08T22:39:39.156Z,100234.47
2022-11-08T22:42:06.611Z,100230.53
2022-11-08T22:44:34.166Z,100225.13
2022-11-08T22:47:01.642Z,100237.28
2022-11-08T22:49:29.117Z,100234.34
2022-11-08T22:51:59.076Z,100236.00
2022-11-08T22:54:27.469Z,100234.97
2022-11-08T22:56:55.043Z,100233.13
2022-11-08T22:59:22.488Z,100232.84
2022-11-08T23:01:50.035Z,100237.59
2022-11-08T23:04:17.653Z,100238.94
2022-11-08T23:06:45.187Z,100252.44
2022-11-08T23:09:12.792Z,100247.72
2022-11-08T23:11:58.806Z,100247.50
2022-11-08T23:14:44.681Z,100252.94
2022-11-08T23:17:12.870Z,100241.91
2022-11-08T23:19:58.756Z,100242.81
2022-11-08T23:22:44.634Z,100253.00
2022-11-08T23:25:12.147Z,100250.81
2022-11-08T23:27:59.508Z,100249.63
2022-11-08T23:30:45.748Z,100246.72
2022-11-08T23:33:13.394Z,100248.50
2022-11-08T23:36:01.913Z,100253.97
2022-11-08T23:38:29.997Z,100255.50
2022-11-08T23:41:18.358Z,100250.31
2022-11-08T23:44:04.703Z,100256.22
2022-11-08T23:46:32.310Z,100259.81
2022-11-08T23:48:59.836Z,100263.66
2022-11-08T23:51:27.288Z,100259.16
2022-11-08T23:53:54.776Z,100260.53
2022-11-08T23:56:27.583Z,100262.56
2022-11-08T23:58:58.996Z,100269.59
